sensor_id;sensor_type;location;lat;lon;timestamp;P1;durP1;ratioP1;P2;durP2;ratioP2
80748;SDS011;70145;53.746;9.970;2023-06-01T00:00:10;3.83;;;1.88;;
80748;SDS011;70145;53.746;9.970;2023-06-01T00:02:35;6.03;;;1.73;;
80748;SDS011;70145;53.746;9.970;2023-06-01T00:05:01;6.47;;;1.73;;
80748;SDS011;70145;53.746;9.970;2023-06-01T00:07:26;5.93;;;1.98;;
80748;SDS011;70145;53.746;9.970;2023-06-01T00:09:54;5.57;;;1.77;;
80748;SDS011;70145;53.746;9.970;2023-06-01T00:12:20;7.43;;;1.58;;
80748;SDS011;70145;53.746;9.970;2023-06-01T00:14:48;4.10;;;1.45;;
80748;SDS011;70145;53.746;9.970;2023-06-01T00:17:14;7.30;;;1.67;;
80748;SDS011;70145;53.746;9.970;2023-06-01T00:19:39;5.72;;;2.30;;
80748;SDS011;70145;53.746;9.970;2023-06-01T00:22:05;5.10;;;1.55;;
80748;SDS011;70145;53.746;9.970;2023-06-01T00:24:32;5.13;;;2.08;;
80748;SDS011;70145;53.746;9.970;2023-06-01T00:26:57;5.43;;;1.45;;
80748;SDS011;70145;53.746;9.970;2023-06-01T00:29:22;5.93;;;1.50;;
80748;SDS011;70145;53.746;9.970;2023-06-01T00:31:48;4.82;;;1.33;;
80748;SDS011;70145;53.746;9.970;2023-06-01T00:34:13;5.45;;;1.60;;
80748;SDS011;70145;53.746;9.970;2023-06-01T00:36:38;7.00;;;2.33;;
80748;SDS011;70145;53.746;9.970;2023-06-01T00:39:04;5.75;;;1.65;;
80748;SDS011;70145;53.746;9.970;2023-06-01T00:41:29;4.35;;;1.73;;
80748;SDS011;70145;53.746;9.970;2023-06-01T00:43:55;9.45;;;2.40;;
80748;SDS011;70145;53.746;9.970;2023-06-01T00:46:20;7.77;;;1.90;;
80748;SDS011;70145;53.746;9.970;2023-06-01T00:48:46;4.95;;;1.45;;
80748;SDS011;70145;53.746;9.970;2023-06-01T00:51:11;4.20;;;1.83;;
80748;SDS011;70145;53.746;9.970;2023-06-01T00:53:39;4.65;;;1.80;;
80748;SDS011;70145;53.746;9.970;2023-06-01T00:56:05;4.35;;;1.90;;
80748;SDS011;70145;53.746;9.970;2023-06-01T00:58:31;3.90;;;1.48;;
80748;SDS011;70145;53.746;9.970;2023-06-01T01:00:57;5.47;;;2.22;;
80748;SDS011;70145;53.746;9.970;2023-06-01T01:03:22;5.53;;;2.20;;
80748;SDS011;70145;53.746;9.970;2023-06-01T01:05:51;5.20;;;2.05;;
80748;SDS011;70145;53.746;9.970;2023-06-01T01:11:39;4.03;;;1.65;;
80748;SDS011;70145;53.746;9.970;2023-06-01T01:19:50;6.30;;;2.28;;
80748;SDS011;70145;53.746;9.970;2023-06-01T01:28:27;5.72;;;1.88;;
80748;SDS011;70145;53.746;9.970;2023-06-01T01:30:59;9.05;;;2.53;;
80748;SDS011;70145;53.746;9.970;2023-06-01T01:33:26;6.55;;;2.22;;
80748;SDS011;70145;53.746;9.970;2023-06-01T01:35:52;9.95;;;3.00;;
80748;SDS011;70145;53.746;9.970;2023-06-01T01:38:18;6.72;;;2.45;;
80748;SDS011;70145;53.746;9.970;2023-06-01T01:40:43;6.28;;;2.60;;
80748;SDS011;70145;53.746;9.970;2023-06-01T01:43:09;4.30;;;1.67;;
80748;SDS011;70145;53.746;9.970;2023-06-01T01:45:34;7.20;;;2.08;;
80748;SDS011;70145;53.746;9.970;2023-06-01T01:48:05;7.03;;;2.13;;
80748;SDS011;70145;53.746;9.970;2023-06-01T01:50:38;7.63;;;1.90;;
80748;SDS011;70145;53.746;9.970;2023-06-01T01:53:12;5.15;;;1.85;;
80748;SDS011;70145;53.746;9.970;2023-06-01T01:55:38;6.60;;;2.58;;
80748;SDS011;70145;53.746;9.970;2023-06-01T01:58:03;4.88;;;2.13;;
80748;SDS011;70145;53.746;9.970;2023-06-01T02:00:30;5.03;;;2.38;;
80748;SDS011;70145;53.746;9.970;2023-06-01T02:02:56;6.43;;;2.10;;
80748;SDS011;70145;53.746;9.970;2023-06-01T02:05:22;9.55;;;2.55;;
80748;SDS011;70145;53.746;9.970;2023-06-01T02:07:48;7.53;;;2.13;;
80748;SDS011;70145;53.746;9.970;2023-06-01T02:10:13;5.25;;;2.40;;
80748;SDS011;70145;53.746;9.970;2023-06-01T02:12:38;4.80;;;2.03;;
80748;SDS011;70145;53.746;9.970;2023-06-01T02:15:04;6.93;;;2.38;;
80748;SDS011;70145;53.746;9.970;2023-06-01T02:17:30;6.00;;;2.42;;
80748;SDS011;70145;53.746;9.970;2023-06-01T02:19:57;7.88;;;2.00;;
80748;SDS011;70145;53.746;9.970;2023-06-01T02:22:23;6.15;;;2.50;;
80748;SDS011;70145;53.746;9.970;2023-06-01T02:24:48;4.47;;;1.70;;
80748;SDS011;70145;53.746;9.970;2023-06-01T02:27:14;4.95;;;1.90;;
80748;SDS011;70145;53.746;9.970;2023-06-01T02:29:39;6.63;;;1.77;;
80748;SDS011;70145;53.746;9.970;2023-06-01T02:32:05;4.22;;;1.70;;
80748;SDS011;70145;53.746;9.970;2023-06-01T02:34:30;7.53;;;2.25;;
80748;SDS011;70145;53.746;9.970;2023-06-01T02:36:56;8.18;;;2.50;;
80748;SDS011;70145;53.746;9.970;2023-06-01T02:39:22;6.25;;;3.28;;
80748;SDS011;70145;53.746;9.970;2023-06-01T02:41:48;6.55;;;2.00;;
80748;SDS011;70145;53.746;9.970;2023-06-01T02:44:13;6.00;;;2.00;;
80748;SDS011;70145;53.746;9.970;2023-06-01T02:46:39;6.60;;;2.20;;
80748;SDS011;70145;53.746;9.970;2023-06-01T02:49:04;5.33;;;2.03;;
80748;SDS011;70145;53.746;9.970;2023-06-01T02:51:30;7.57;;;1.90;;
80748;SDS011;70145;53.746;9.970;2023-06-01T02:53:56;8.20;;;2.15;;
80748;SDS011;70145;53.746;9.970;2023-06-01T02:56:21;7.03;;;2.08;;
80748;SDS011;70145;53.746;9.970;2023-06-01T02:58:47;8.40;;;2.13;;
80748;SDS011;70145;53.746;9.970;2023-06-01T03:01:13;6.15;;;2.28;;
80748;SDS011;70145;53.746;9.970;2023-06-01T03:03:39;5.30;;;2.10;;
80748;SDS011;70145;53.746;9.970;2023-06-01T03:06:05;8.57;;;1.88;;
80748;SDS011;70145;53.746;9.970;2023-06-01T03:08:31;5.60;;;3.05;;
80748;SDS011;70145;53.746;9.970;2023-06-01T03:10:57;9.07;;;2.75;;
80748;SDS011;70145;53.746;9.970;2023-06-01T03:13:23;8.27;;;2.25;;
80748;SDS011;70145;53.746;9.970;2023-06-01T03:15:48;4.35;;;2.22;;
80748;SDS011;70145;53.746;9.970;2023-06-01T03:18:15;6.70;;;2.20;;
80748;SDS011;70145;53.746;9.970;2023-06-01T03:20:40;7.53;;;2.03;;
80748;SDS011;70145;53.746;9.970;2023-06-01T03:23:06;4.53;;;1.60;;
80748;SDS011;70145;53.746;9.970;2023-06-01T03:25:31;6.47;;;2.50;;
80748;SDS011;70145;53.746;9.970;2023-06-01T03:27:58;6.85;;;2.15;;
80748;SDS011;70145;53.746;9.970;2023-06-01T03:30:23;9.27;;;2.70;;
80748;SDS011;70145;53.746;9.970;2023-06-01T03:32:48;5.13;;;2.93;;
80748;SDS011;70145;53.746;9.970;2023-06-01T03:35:14;6.45;;;1.98;;
80748;SDS011;70145;53.746;9.970;2023-06-01T03:37:40;6.20;;;2.25;;
80748;SDS011;70145;53.746;9.970;2023-06-01T03:40:07;6.30;;;2.10;;
80748;SDS011;70145;53.746;9.970;2023-06-01T03:42:46;6.20;;;1.95;;
80748;SDS011;70145;53.746;9.970;2023-06-01T03:45:13;5.57;;;1.90;;
80748;SDS011;70145;53.746;9.970;2023-06-01T03:47:40;5.10;;;2.95;;
80748;SDS011;70145;53.746;9.970;2023-06-01T03:50:06;6.70;;;2.05;;
80748;SDS011;70145;53.746;9.970;2023-06-01T03:52:34;8.32;;;2.85;;
80748;SDS011;70145;53.746;9.970;2023-06-01T03:55:00;6.00;;;2.72;;
80748;SDS011;70145;53.746;9.970;2023-06-01T03:57:27;5.25;;;1.90;;
80748;SDS011;70145;53.746;9.970;2023-06-01T03:59:52;7.30;;;2.25;;
80748;SDS011;70145;53.746;9.970;2023-06-01T04:02:18;5.95;;;2.33;;
80748;SDS011;70145;53.746;9.970;2023-06-01T04:04:44;5.32;;;1.80;;
80748;SDS011;70145;53.746;9.970;2023-06-01T04:07:13;5.78;;;1.98;;
80748;SDS011;70145;53.746;9.970;2023-06-01T04:09:46;4.28;;;2.35;;
80748;SDS011;70145;53.746;9.970;2023-06-01T04:12:14;5.82;;;2.22;;
80748;SDS011;70145;53.746;9.970;2023-06-01T04:14:40;4.88;;;1.90;;
80748;SDS011;70145;53.746;9.970;2023-06-01T04:17:06;6.28;;;2.45;;
80748;SDS011;70145;53.746;9.970;2023-06-01T04:19:32;6.50;;;1.80;;
80748;SDS011;70145;53.746;9.970;2023-06-01T04:21:59;4.20;;;2.00;;
80748;SDS011;70145;53.746;9.970;2023-06-01T04:24:24;6.78;;;2.00;;
80748;SDS011;70145;53.746;9.970;2023-06-01T04:26:50;6.22;;;2.47;;
80748;SDS011;70145;53.746;9.970;2023-06-01T04:29:15;5.38;;;2.30;;
80748;SDS011;70145;53.746;9.970;2023-06-01T04:31:41;5.72;;;2.40;;
80748;SDS011;70145;53.746;9.970;2023-06-01T04:34:06;8.20;;;2.63;;
80748;SDS011;70145;53.746;9.970;2023-06-01T04:36:34;8.45;;;2.70;;
80748;SDS011;70145;53.746;9.970;2023-06-01T04:39:04;6.03;;;2.55;;
80748;SDS011;70145;53.746;9.970;2023-06-01T04:41:31;6.72;;;2.40;;
80748;SDS011;70145;53.746;9.970;2023-06-01T04:43:58;5.15;;;2.80;;
80748;SDS011;70145;53.746;9.970;2023-06-01T04:46:23;4.97;;;2.50;;
80748;SDS011;70145;53.746;9.970;2023-06-01T04:48:52;6.97;;;2.33;;
80748;SDS011;70145;53.746;9.970;2023-06-01T04:51:20;7.22;;;2.20;;
80748;SDS011;70145;53.746;9.970;2023-06-01T04:53:46;8.18;;;2.17;;
80748;SDS011;70145;53.746;9.970;2023-06-01T04:56:19;8.18;;;2.92;;
80748;SDS011;70145;53.746;9.970;2023-06-01T04:58:52;5.05;;;1.95;;
80748;SDS011;70145;53.746;9.970;2023-06-01T05:01:19;9.00;;;3.42;;
80748;SDS011;70145;53.746;9.970;2023-06-01T05:03:49;6.03;;;2.15;;
80748;SDS011;70145;53.746;9.970;2023-06-01T05:06:16;6.68;;;3.22;;
80748;SDS011;70145;53.746;9.970;2023-06-01T05:08:42;6.22;;;2.30;;
80748;SDS011;70145;53.746;9.970;2023-06-01T05:11:08;7.35;;;2.72;;
80748;SDS011;70145;53.746;9.970;2023-06-01T05:13:38;4.93;;;2.30;;
80748;SDS011;70145;53.746;9.970;2023-06-01T05:16:04;9.18;;;2.40;;
80748;SDS011;70145;53.746;9.970;2023-06-01T05:18:31;6.50;;;2.65;;
80748;SDS011;70145;53.746;9.970;2023-06-01T05:20:59;7.65;;;2.92;;
80748;SDS011;70145;53.746;9.970;2023-06-01T05:23:25;7.22;;;3.40;;
80748;SDS011;70145;53.746;9.970;2023-06-01T05:25:52;9.10;;;2.65;;
80748;SDS011;70145;53.746;9.970;2023-06-01T05:28:19;8.05;;;2.97;;
80748;SDS011;70145;53.746;9.970;2023-06-01T05:30:45;7.18;;;3.17;;
80748;SDS011;70145;53.746;9.970;2023-06-01T05:33:11;7.28;;;3.47;;
80748;SDS011;70145;53.746;9.970;2023-06-01T05:35:36;7.75;;;3.15;;
80748;SDS011;70145;53.746;9.970;2023-06-01T05:38:01;6.70;;;4.10;;
80748;SDS011;70145;53.746;9.970;2023-06-01T05:40:28;5.53;;;3.00;;
80748;SDS011;70145;53.746;9.970;2023-06-01T05:42:53;8.55;;;3.70;;
80748;SDS011;70145;53.746;9.970;2023-06-01T05:45:19;7.30;;;2.90;;
80748;SDS011;70145;53.746;9.970;2023-06-01T05:47:45;6.88;;;2.95;;
80748;SDS011;70145;53.746;9.970;2023-06-01T05:50:10;9.55;;;3.15;;
80748;SDS011;70145;53.746;9.970;2023-06-01T05:52:35;7.97;;;3.90;;
80748;SDS011;70145;53.746;9.970;2023-06-01T05:55:01;6.23;;;2.47;;
80748;SDS011;70145;53.746;9.970;2023-06-01T05:57:26;6.80;;;2.90;;
80748;SDS011;70145;53.746;9.970;2023-06-01T05:59:51;5.80;;;3.07;;
80748;SDS011;70145;53.746;9.970;2023-06-01T06:02:18;6.55;;;3.00;;
80748;SDS011;70145;53.746;9.970;2023-06-01T06:04:43;6.47;;;2.42;;
80748;SDS011;70145;53.746;9.970;2023-06-01T06:07:09;8.00;;;3.90;;
80748;SDS011;70145;53.746;9.970;2023-06-01T06:09:34;10.43;;;3.45;;
80748;SDS011;70145;53.746;9.970;2023-06-01T06:12:00;10.50;;;3.28;;
80748;SDS011;70145;53.746;9.970;2023-06-01T06:14:26;7.53;;;2.75;;
80748;SDS011;70145;53.746;9.970;2023-06-01T06:16:54;5.68;;;2.63;;
80748;SDS011;70145;53.746;9.970;2023-06-01T06:19:20;6.93;;;2.63;;
80748;SDS011;70145;53.746;9.970;2023-06-01T06:21:46;7.15;;;2.88;;
80748;SDS011;70145;53.746;9.970;2023-06-01T06:24:11;7.25;;;2.42;;
80748;SDS011;70145;53.746;9.970;2023-06-01T06:26:36;5.30;;;2.38;;
80748;SDS011;70145;53.746;9.970;2023-06-01T06:29:02;5.22;;;2.15;;
80748;SDS011;70145;53.746;9.970;2023-06-01T06:31:27;7.40;;;2.67;;
80748;SDS011;70145;53.746;9.970;2023-06-01T06:33:52;5.70;;;1.70;;
80748;SDS011;70145;53.746;9.970;2023-06-01T06:36:18;7.18;;;2.60;;
80748;SDS011;70145;53.746;9.970;2023-06-01T06:38:43;5.97;;;1.98;;
80748;SDS011;70145;53.746;9.970;2023-06-01T06:41:09;6.00;;;2.15;;
80748;SDS011;70145;53.746;9.970;2023-06-01T06:43:35;4.55;;;2.00;;
80748;SDS011;70145;53.746;9.970;2023-06-01T06:46:00;5.75;;;2.65;;
80748;SDS011;70145;53.746;9.970;2023-06-01T06:48:25;7.33;;;2.30;;
80748;SDS011;70145;53.746;9.970;2023-06-01T06:50:51;7.50;;;2.07;;
80748;SDS011;70145;53.746;9.970;2023-06-01T06:53:16;6.40;;;2.60;;
80748;SDS011;70145;53.746;9.970;2023-06-01T06:55:42;6.75;;;2.45;;
80748;SDS011;70145;53.746;9.970;2023-06-01T06:58:09;10.30;;;3.03;;
80748;SDS011;70145;53.746;9.970;2023-06-01T07:00:36;6.40;;;1.90;;
80748;SDS011;70145;53.746;9.970;2023-06-01T07:03:01;4.18;;;1.75;;
80748;SDS011;70145;53.746;9.970;2023-06-01T07:05:28;4.80;;;2.10;;
80748;SDS011;70145;53.746;9.970;2023-06-01T07:07:53;2.85;;;1.92;;
80748;SDS011;70145;53.746;9.970;2023-06-01T07:10:19;4.50;;;1.85;;
80748;SDS011;70145;53.746;9.970;2023-06-01T07:12:47;6.68;;;2.13;;
80748;SDS011;70145;53.746;9.970;2023-06-01T07:15:13;5.10;;;1.80;;
80748;SDS011;70145;53.746;9.970;2023-06-01T07:17:39;3.78;;;2.30;;
80748;SDS011;70145;53.746;9.970;2023-06-01T07:20:04;5.15;;;2.53;;
80748;SDS011;70145;53.746;9.970;2023-06-01T07:22:32;6.30;;;2.63;;
80748;SDS011;70145;53.746;9.970;2023-06-01T07:24:58;4.18;;;1.70;;
80748;SDS011;70145;53.746;9.970;2023-06-01T07:27:24;5.45;;;2.65;;
80748;SDS011;70145;53.746;9.970;2023-06-01T07:29:49;7.10;;;2.42;;
80748;SDS011;70145;53.746;9.970;2023-06-01T07:32:19;5.22;;;1.92;;
80748;SDS011;70145;53.746;9.970;2023-06-01T07:34:45;6.95;;;2.15;;
80748;SDS011;70145;53.746;9.970;2023-06-01T07:37:11;5.25;;;1.75;;
80748;SDS011;70145;53.746;9.970;2023-06-01T07:39:36;5.78;;;2.45;;
80748;SDS011;70145;53.746;9.970;2023-06-01T07:42:02;3.38;;;1.50;;
80748;SDS011;70145;53.746;9.970;2023-06-01T07:44:27;3.28;;;1.70;;
80748;SDS011;70145;53.746;9.970;2023-06-01T07:46:53;4.68;;;2.00;;
80748;SDS011;70145;53.746;9.970;2023-06-01T07:49:18;5.77;;;2.40;;
80748;SDS011;70145;53.746;9.970;2023-06-01T07:51:43;7.63;;;2.50;;
80748;SDS011;70145;53.746;9.970;2023-06-01T07:54:09;6.50;;;2.40;;
80748;SDS011;70145;53.746;9.970;2023-06-01T07:56:35;4.60;;;2.22;;
80748;SDS011;70145;53.746;9.970;2023-06-01T07:59:00;4.15;;;1.92;;
80748;SDS011;70145;53.746;9.970;2023-06-01T08:01:26;4.00;;;1.25;;
80748;SDS011;70145;53.746;9.970;2023-06-01T08:03:53;5.80;;;1.88;;
80748;SDS011;70145;53.746;9.970;2023-06-01T08:06:20;5.10;;;1.30;;
80748;SDS011;70145;53.746;9.970;2023-06-01T08:08:47;3.60;;;1.35;;
80748;SDS011;70145;53.746;9.970;2023-06-01T08:11:14;5.28;;;1.70;;
80748;SDS011;70145;53.746;9.970;2023-06-01T08:13:40;5.53;;;2.15;;
80748;SDS011;70145;53.746;9.970;2023-06-01T08:16:06;5.38;;;2.00;;
80748;SDS011;70145;53.746;9.970;2023-06-01T08:18:31;6.05;;;1.55;;
80748;SDS011;70145;53.746;9.970;2023-06-01T08:20:57;7.55;;;2.08;;
80748;SDS011;70145;53.746;9.970;2023-06-01T08:23:25;3.92;;;1.15;;
80748;SDS011;70145;53.746;9.970;2023-06-01T08:25:51;5.70;;;1.67;;
80748;SDS011;70145;53.746;9.970;2023-06-01T08:28:16;5.23;;;1.40;;
80748;SDS011;70145;53.746;9.970;2023-06-01T08:30:44;3.50;;;1.00;;
80748;SDS011;70145;53.746;9.970;2023-06-01T08:33:10;5.22;;;1.52;;
80748;SDS011;70145;53.746;9.970;2023-06-01T08:35:35;8.33;;;1.57;;
80748;SDS011;70145;53.746;9.970;2023-06-01T08:38:00;3.30;;;1.30;;
80748;SDS011;70145;53.746;9.970;2023-06-01T08:40:26;3.72;;;1.25;;
80748;SDS011;70145;53.746;9.970;2023-06-01T08:42:56;5.97;;;1.13;;
80748;SDS011;70145;53.746;9.970;2023-06-01T08:45:24;5.70;;;1.58;;
80748;SDS011;70145;53.746;9.970;2023-06-01T08:47:54;2.35;;;1.30;;
80748;SDS011;70145;53.746;9.970;2023-06-01T08:50:21;6.22;;;2.35;;
80748;SDS011;70145;53.746;9.970;2023-06-01T08:52:46;6.57;;;1.20;;
80748;SDS011;70145;53.746;9.970;2023-06-01T08:55:14;8.65;;;1.80;;
80748;SDS011;70145;53.746;9.970;2023-06-01T08:57:40;7.88;;;1.27;;
80748;SDS011;70145;53.746;9.970;2023-06-01T09:00:06;6.05;;;1.30;;
80748;SDS011;70145;53.746;9.970;2023-06-01T09:02:33;7.03;;;1.48;;
80748;SDS011;70145;53.746;9.970;2023-06-01T09:04:58;5.35;;;1.60;;
80748;SDS011;70145;53.746;9.970;2023-06-01T09:07:24;6.85;;;1.75;;
80748;SDS011;70145;53.746;9.970;2023-06-01T09:09:50;9.18;;;1.70;;
80748;SDS011;70145;53.746;9.970;2023-06-01T09:12:20;5.20;;;2.13;;
80748;SDS011;70145;53.746;9.970;2023-06-01T09:14:49;6.20;;;1.60;;
80748;SDS011;70145;53.746;9.970;2023-06-01T09:17:21;6.25;;;2.47;;
80748;SDS011;70145;53.746;9.970;2023-06-01T09:19:49;4.97;;;1.50;;
80748;SDS011;70145;53.746;9.970;2023-06-01T09:22:18;4.38;;;1.27;;
80748;SDS011;70145;53.746;9.970;2023-06-01T09:24:54;3.53;;;1.63;;
80748;SDS011;70145;53.746;9.970;2023-06-01T09:27:23;6.80;;;1.80;;
80748;SDS011;70145;53.746;9.970;2023-06-01T09:29:59;7.05;;;1.52;;
80748;SDS011;70145;53.746;9.970;2023-06-01T09:32:25;4.40;;;1.70;;
80748;SDS011;70145;53.746;9.970;2023-06-01T09:34:51;6.93;;;1.45;;
80748;SDS011;70145;53.746;9.970;2023-06-01T09:37:16;10.95;;;3.15;;
80748;SDS011;70145;53.746;9.970;2023-06-01T09:39:42;6.43;;;1.80;;
80748;SDS011;70145;53.746;9.970;2023-06-01T09:42:08;6.60;;;1.23;;
80748;SDS011;70145;53.746;9.970;2023-06-01T09:44:35;6.28;;;1.13;;
80748;SDS011;70145;53.746;9.970;2023-06-01T09:47:03;5.40;;;1.60;;
80748;SDS011;70145;53.746;9.970;2023-06-01T09:49:30;5.68;;;1.15;;
80748;SDS011;70145;53.746;9.970;2023-06-01T09:54:34;6.45;;;1.30;;
80748;SDS011;70145;53.746;9.970;2023-06-01T09:57:02;5.45;;;1.13;;
80748;SDS011;70145;53.746;9.970;2023-06-01T09:59:29;6.22;;;1.52;;
80748;SDS011;70145;53.746;9.970;2023-06-01T10:02:02;4.93;;;1.98;;
80748;SDS011;70145;53.746;9.970;2023-06-01T10:04:29;6.45;;;1.60;;
80748;SDS011;70145;53.746;9.970;2023-06-01T10:06:55;7.93;;;1.50;;
80748;SDS011;70145;53.746;9.970;2023-06-01T10:09:22;9.85;;;1.65;;
80748;SDS011;70145;53.746;9.970;2023-06-01T10:11:50;6.75;;;1.60;;
80748;SDS011;70145;53.746;9.970;2023-06-01T10:14:19;10.23;;;1.63;;
80748;SDS011;70145;53.746;9.970;2023-06-01T10:16:45;6.20;;;1.52;;
80748;SDS011;70145;53.746;9.970;2023-06-01T10:19:14;7.00;;;1.35;;
80748;SDS011;70145;53.746;9.970;2023-06-01T10:21:39;7.97;;;1.60;;
80748;SDS011;70145;53.746;9.970;2023-06-01T10:24:05;4.30;;;1.23;;
80748;SDS011;70145;53.746;9.970;2023-06-01T10:26:37;5.75;;;1.25;;
80748;SDS011;70145;53.746;9.970;2023-06-01T10:29:07;6.05;;;1.67;;
80748;SDS011;70145;53.746;9.970;2023-06-01T10:31:34;4.85;;;1.95;;
80748;SDS011;70145;53.746;9.970;2023-06-01T10:34:01;6.20;;;1.60;;
80748;SDS011;70145;53.746;9.970;2023-06-01T10:39:36;8.05;;;1.58;;
80748;SDS011;70145;53.746;9.970;2023-06-01T10:47:06;7.05;;;2.10;;
80748;SDS011;70145;53.746;9.970;2023-06-01T10:54:52;6.00;;;1.25;;
80748;SDS011;70145;53.746;9.970;2023-06-01T11:00:04;4.85;;;1.10;;
80748;SDS011;70145;53.746;9.970;2023-06-01T11:05:47;4.57;;;1.10;;
80748;SDS011;70145;53.746;9.970;2023-06-01T11:13:38;3.65;;;1.52;;
80748;SDS011;70145;53.746;9.970;2023-06-01T11:21:07;6.80;;;1.10;;
80748;SDS011;70145;53.746;9.970;2023-06-01T11:23:34;3.92;;;1.10;;
80748;SDS011;70145;53.746;9.970;2023-06-01T11:26:00;5.93;;;1.40;;
80748;SDS011;70145;53.746;9.970;2023-06-01T11:28:30;3.28;;;0.98;;
80748;SDS011;70145;53.746;9.970;2023-06-01T11:30:56;4.70;;;1.30;;
80748;SDS011;70145;53.746;9.970;2023-06-01T11:33:23;6.63;;;1.02;;
80748;SDS011;70145;53.746;9.970;2023-06-01T11:35:59;5.18;;;1.63;;
80748;SDS011;70145;53.746;9.970;2023-06-01T11:38:32;4.90;;;1.30;;
80748;SDS011;70145;53.746;9.970;2023-06-01T11:40:59;4.85;;;0.98;;
80748;SDS011;70145;53.746;9.970;2023-06-01T11:43:26;6.00;;;1.10;;
80748;SDS011;70145;53.746;9.970;2023-06-01T11:46:02;5.28;;;1.00;;
80748;SDS011;70145;53.746;9.970;2023-06-01T11:48:29;4.93;;;1.10;;
80748;SDS011;70145;53.746;9.970;2023-06-01T11:50:55;3.92;;;0.90;;
80748;SDS011;70145;53.746;9.970;2023-06-01T11:53:21;6.30;;;1.20;;
80748;SDS011;70145;53.746;9.970;2023-06-01T11:55:51;6.13;;;1.38;;
80748;SDS011;70145;53.746;9.970;2023-06-01T11:58:24;4.75;;;1.30;;
80748;SDS011;70145;53.746;9.970;2023-06-01T12:00:55;2.67;;;1.30;;
80748;SDS011;70145;53.746;9.970;2023-06-01T12:03:22;4.80;;;0.70;;
80748;SDS011;70145;53.746;9.970;2023-06-01T12:05:49;3.60;;;0.95;;
80748;SDS011;70145;53.746;9.970;2023-06-01T12:08:16;4.97;;;1.17;;
80748;SDS011;70145;53.746;9.970;2023-06-01T12:10:44;9.98;;;1.00;;
80748;SDS011;70145;53.746;9.970;2023-06-01T12:13:10;7.15;;;1.55;;
80748;SDS011;70145;53.746;9.970;2023-06-01T12:15:36;6.20;;;0.80;;
80748;SDS011;70145;53.746;9.970;2023-06-01T12:18:02;4.55;;;1.20;;
80748;SDS011;70145;53.746;9.970;2023-06-01T12:20:29;4.95;;;0.80;;
80748;SDS011;70145;53.746;9.970;2023-06-01T12:22:56;5.63;;;1.33;;
80748;SDS011;70145;53.746;9.970;2023-06-01T12:25:23;4.13;;;0.90;;
80748;SDS011;70145;53.746;9.970;2023-06-01T12:28:07;4.45;;;1.05;;
80748;SDS011;70145;53.746;9.970;2023-06-01T12:30:36;9.50;;;1.23;;
80748;SDS011;70145;53.746;9.970;2023-06-01T12:33:01;5.97;;;0.90;;
80748;SDS011;70145;53.746;9.970;2023-06-01T12:35:29;6.68;;;1.40;;
80748;SDS011;70145;53.746;9.970;2023-06-01T12:38:29;3.53;;;0.75;;
80748;SDS011;70145;53.746;9.970;2023-06-01T12:40:50;3.90;;;0.63;;
80748;SDS011;70145;53.746;9.970;2023-06-01T12:43:32;6.35;;;0.70;;
80748;SDS011;70145;53.746;9.970;2023-06-01T12:45:59;6.03;;;1.52;;
80748;SDS011;70145;53.746;9.970;2023-06-01T12:48:34;4.93;;;1.40;;
80748;SDS011;70145;53.746;9.970;2023-06-01T12:51:01;4.70;;;1.30;;
80748;SDS011;70145;53.746;9.970;2023-06-01T12:53:28;8.27;;;1.48;;
80748;SDS011;70145;53.746;9.970;2023-06-01T12:55:54;4.65;;;0.60;;
80748;SDS011;70145;53.746;9.970;2023-06-01T12:58:19;6.70;;;1.73;;
80748;SDS011;70145;53.746;9.970;2023-06-01T13:00:45;5.75;;;1.00;;
80748;SDS011;70145;53.746;9.970;2023-06-01T13:03:10;6.07;;;1.00;;
80748;SDS011;70145;53.746;9.970;2023-06-01T13:05:38;6.77;;;0.93;;
80748;SDS011;70145;53.746;9.970;2023-06-01T13:08:07;5.45;;;1.45;;
80748;SDS011;70145;53.746;9.970;2023-06-01T13:10:33;3.03;;;1.25;;
80748;SDS011;70145;53.746;9.970;2023-06-01T13:12:58;4.22;;;0.80;;
80748;SDS011;70145;53.746;9.970;2023-06-01T13:15:23;5.87;;;1.03;;
80748;SDS011;70145;53.746;9.970;2023-06-01T13:17:49;5.33;;;1.00;;
80748;SDS011;70145;53.746;9.970;2023-06-01T13:20:14;10.90;;;1.50;;
80748;SDS011;70145;53.746;9.970;2023-06-01T13:22:41;6.68;;;1.48;;
80748;SDS011;70145;53.746;9.970;2023-06-01T13:25:07;4.38;;;0.90;;
80748;SDS011;70145;53.746;9.970;2023-06-01T13:27:34;8.07;;;1.55;;
80748;SDS011;70145;53.746;9.970;2023-06-01T13:30:00;6.15;;;1.48;;
80748;SDS011;70145;53.746;9.970;2023-06-01T13:32:26;4.50;;;0.95;;
80748;SDS011;70145;53.746;9.970;2023-06-01T13:34:52;5.18;;;0.90;;
80748;SDS011;70145;53.746;9.970;2023-06-01T13:37:17;7.72;;;1.20;;
80748;SDS011;70145;53.746;9.970;2023-06-01T13:39:43;6.77;;;0.90;;
80748;SDS011;70145;53.746;9.970;2023-06-01T13:42:08;8.17;;;1.53;;
80748;SDS011;70145;53.746;9.970;2023-06-01T13:44:33;5.53;;;1.02;;
80748;SDS011;70145;53.746;9.970;2023-06-01T13:46:59;6.72;;;1.25;;
80748;SDS011;70145;53.746;9.970;2023-06-01T13:49:24;5.70;;;0.90;;
80748;SDS011;70145;53.746;9.970;2023-06-01T13:51:49;8.20;;;1.27;;
80748;SDS011;70145;53.746;9.970;2023-06-01T13:54:15;6.80;;;1.10;;
80748;SDS011;70145;53.746;9.970;2023-06-01T13:56:41;6.15;;;1.13;;
80748;SDS011;70145;53.746;9.970;2023-06-01T13:59:06;5.65;;;0.80;;
80748;SDS011;70145;53.746;9.970;2023-06-01T14:01:31;6.57;;;1.50;;
80748;SDS011;70145;53.746;9.970;2023-06-01T14:03:57;6.80;;;1.17;;
80748;SDS011;70145;53.746;9.970;2023-06-01T14:06:22;8.63;;;1.40;;
80748;SDS011;70145;53.746;9.970;2023-06-01T14:08:47;6.67;;;1.57;;
80748;SDS011;70145;53.746;9.970;2023-06-01T14:11:13;6.35;;;1.25;;
80748;SDS011;70145;53.746;9.970;2023-06-01T14:13:39;6.50;;;1.60;;
80748;SDS011;70145;53.746;9.970;2023-06-01T14:16:04;9.65;;;1.33;;
80748;SDS011;70145;53.746;9.970;2023-06-01T14:18:30;7.05;;;1.90;;
80748;SDS011;70145;53.746;9.970;2023-06-01T14:20:55;6.55;;;1.00;;
80748;SDS011;70145;53.746;9.970;2023-06-01T14:23:21;8.13;;;1.42;;
80748;SDS011;70145;53.746;9.970;2023-06-01T14:25:47;6.03;;;1.30;;
80748;SDS011;70145;53.746;9.970;2023-06-01T14:28:12;7.80;;;1.73;;
80748;SDS011;70145;53.746;9.970;2023-06-01T14:30:37;6.60;;;1.00;;
80748;SDS011;70145;53.746;9.970;2023-06-01T14:33:03;6.93;;;1.88;;
80748;SDS011;70145;53.746;9.970;2023-06-01T14:35:28;8.32;;;1.45;;
80748;SDS011;70145;53.746;9.970;2023-06-01T14:37:53;4.00;;;1.00;;
80748;SDS011;70145;53.746;9.970;2023-06-01T14:40:20;5.22;;;1.30;;
80748;SDS011;70145;53.746;9.970;2023-06-01T14:42:45;8.32;;;1.63;;
80748;SDS011;70145;53.746;9.970;2023-06-01T14:45:11;6.80;;;2.33;;
80748;SDS011;70145;53.746;9.970;2023-06-01T14:47:36;7.20;;;1.58;;
80748;SDS011;70145;53.746;9.970;2023-06-01T14:50:02;8.07;;;1.40;;
80748;SDS011;70145;53.746;9.970;2023-06-01T14:52:28;8.20;;;1.83;;
80748;SDS011;70145;53.746;9.970;2023-06-01T14:54:54;8.07;;;1.38;;
80748;SDS011;70145;53.746;9.970;2023-06-01T14:57:20;10.50;;;1.50;;
80748;SDS011;70145;53.746;9.970;2023-06-01T14:59:45;8.02;;;1.75;;
80748;SDS011;70145;53.746;9.970;2023-06-01T15:02:11;6.97;;;1.45;;
80748;SDS011;70145;53.746;9.970;2023-06-01T15:04:36;12.53;;;1.40;;
80748;SDS011;70145;53.746;9.970;2023-06-01T15:07:01;8.57;;;1.70;;
80748;SDS011;70145;53.746;9.970;2023-06-01T15:09:27;8.43;;;1.95;;
80748;SDS011;70145;53.746;9.970;2023-06-01T15:11:52;12.07;;;1.57;;
80748;SDS011;70145;53.746;9.970;2023-06-01T15:14:17;7.55;;;2.58;;
80748;SDS011;70145;53.746;9.970;2023-06-01T15:16:43;17.85;;;2.38;;
80748;SDS011;70145;53.746;9.970;2023-06-01T15:19:09;7.13;;;1.10;;
80748;SDS011;70145;53.746;9.970;2023-06-01T15:21:34;6.60;;;1.45;;
80748;SDS011;70145;53.746;9.970;2023-06-01T15:24:01;9.02;;;1.65;;
80748;SDS011;70145;53.746;9.970;2023-06-01T15:26:27;7.93;;;1.65;;
80748;SDS011;70145;53.746;9.970;2023-06-01T15:28:52;8.10;;;3.42;;
80748;SDS011;70145;53.746;9.970;2023-06-01T15:31:17;6.68;;;1.40;;